createdAt,value
2022-12-11T00:02:05.753Z,83.50
2022-12-11T00:04:32.514Z,83.50
2022-12-11T00:09:26.448Z,83.50
2022-12-11T00:11:52.998Z,83.50
2022-12-11T00:14:19.606Z,83.50
2022-12-11T00:16:48.243Z,83.50
2022-12-11T00:21:42.269Z,83.60
2022-12-11T00:29:05.345Z,83.60
2022-12-11T00:31:32.044Z,83.60
2022-12-11T00:33:58.686Z,83.60
2022-12-11T00:36:26.487Z,83.70
2022-12-11T00:38:54.051Z,83.60
2022-12-11T00:41:20.812Z,83.60
2022-12-11T00:43:47.567Z,83.60
2022-12-11T00:46:14.428Z,83.60
2022-12-11T00:48:41.044Z,83.70
2022-12-11T00:53:37.654Z,83.80
2022-12-11T00:56:20.685Z,83.70
2022-12-11T00:58:48.199Z,83.80
2022-12-11T01:01:20.414Z,83.70
2022-12-11T01:03:47.333Z,84.40
2022-12-11T01:06:20.651Z,84.40
2022-12-11T01:08:48.257Z,84.30
2022-12-11T01:11:16.795Z,84.30
2022-12-11T01:13:43.891Z,84.40
2022-12-11T01:16:13.585Z,83.80
2022-12-11T01:18:40.599Z,84.30
2022-12-11T01:21:13.259Z,84.40
2022-12-11T01:23:40.687Z,84.30
2022-12-11T01:26:14.092Z,84.30
2022-12-11T01:28:42.163Z,84.40
2022-12-11T01:31:10.346Z,83.90
2022-12-11T01:33:37.525Z,84.40
2022-12-11T01:36:12.760Z,84.40
2022-12-11T01:38:39.494Z,84.50
2022-12-11T01:41:08.805Z,84.50
2022-12-11T01:43:36.039Z,84.50
2022-12-11T01:46:02.884Z,84.00
2022-12-11T01:48:32.957Z,84.50
2022-12-11T01:51:04.839Z,84.50
2022-12-11T01:53:43.294Z,84.00
2022-12-11T01:56:10.516Z,84.00
2022-12-11T01:58:48.921Z,84.50
2022-12-11T02:01:24.719Z,84.00
2022-12-11T02:03:52.663Z,84.60
2022-12-11T02:06:40.841Z,84.50
2022-12-11T02:09:16.139Z,85.10
2022-12-11T02:11:51.435Z,84.50
2022-12-11T02:14:30.172Z,84.50
2022-12-11T02:17:17.369Z,84.50
2022-12-11T02:19:57.847Z,84.50
2022-12-11T02:23:03.158Z,84.60
2022-12-11T02:25:35.900Z,84.60
2022-12-11T02:28:20.230Z,84.70
2022-12-11T02:30:54.046Z,84.50
2022-12-11T02:33:30.785Z,84.60
2022-12-11T02:35:57.591Z,84.60
2022-12-11T02:38:33.696Z,84.60
2022-12-11T02:41:02.580Z,84.60
2022-12-11T02:43:32.407Z,84.10
2022-12-11T02:46:00.552Z,84.60
2022-12-11T02:48:27.437Z,84.60
2022-12-11T02:50:57.747Z,84.70
2022-12-11T02:53:28.452Z,85.10
2022-12-11T02:56:13.593Z,84.70
2022-12-11T02:58:47.883Z,85.30
2022-12-11T03:01:14.567Z,84.50
2022-12-11T03:03:41.558Z,84.40
2022-12-11T03:06:13.517Z,84.50
2022-12-11T03:08:40.039Z,84.40
2022-12-11T03:11:11.096Z,84.40
2022-12-11T03:13:39.577Z,84.40
2022-12-11T03:16:29.512Z,84.40
2022-12-11T03:19:09.165Z,84.50
2022-12-11T03:21:44.396Z,84.50
2022-12-11T03:24:34.223Z,84.50
2022-12-11T03:27:19.560Z,84.50
2022-12-11T03:29:57.979Z,84.60
2022-12-11T03:32:29.702Z,84.60
2022-12-11T03:35:09.813Z,84.80
2022-12-11T03:37:40.126Z,84.80
2022-12-11T03:40:12.564Z,84.90
2022-12-11T03:42:41.614Z,84.80
2022-12-11T03:45:09.369Z,84.80
2022-12-11T03:47:37.919Z,84.80
2022-12-11T03:50:07.524Z,84.80
2022-12-11T03:52:38.633Z,84.20
2022-12-11T03:55:11.972Z,84.30
2022-12-11T03:57:38.801Z,84.70
2022-12-11T04:00:09.353Z,84.60
2022-12-11T04:02:35.937Z,84.60
2022-12-11T04:05:02.750Z,84.50
2022-12-11T04:07:29.298Z,84.50
2022-12-11T04:09:55.852Z,83.90
2022-12-11T04:12:22.437Z,83.90
2022-12-11T04:15:04.403Z,84.40
2022-12-11T04:17:51.647Z,84.30
2022-12-11T04:20:37.408Z,83.70
2022-12-11T04:23:24.609Z,84.30
2022-12-11T04:25:51.163Z,84.30
2022-12-11T04:28:17.701Z,84.30
2022-12-11T04:30:50.468Z,84.30
2022-12-11T04:33:17.083Z,84.30
2022-12-11T04:35:43.611Z,84.30
2022-12-11T04:38:10.137Z,84.40
2022-12-11T04:40:36.665Z,84.40
2022-12-11T04:43:03.481Z,84.40
2022-12-11T04:45:30.022Z,84.40
2022-12-11T04:47:56.549Z,84.40
2022-12-11T04:50:23.146Z,84.00
2022-12-11T04:52:49.670Z,84.50
2022-12-11T04:55:16.270Z,84.50
2022-12-11T04:57:42.825Z,84.50
2022-12-11T05:00:11.191Z,84.50
2022-12-11T05:02:39.213Z,84.60
2022-12-11T05:05:09.581Z,84.60
2022-12-11T05:07:37.598Z,84.60
2022-12-11T05:10:05.771Z,84.60
2022-12-11T05:12:32.793Z,84.60
2022-12-11T05:15:00.276Z,84.70
2022-12-11T05:17:26.865Z,84.80
2022-12-11T05:22:20.705Z,84.20
2022-12-11T05:24:47.229Z,84.80
2022-12-11T05:27:13.907Z,84.20
2022-12-11T05:29:40.477Z,84.20
2022-12-11T05:32:08.319Z,84.70
2022-12-11T05:34:34.900Z,84.80
2022-12-11T05:37:02.103Z,84.70
2022-12-11T05:39:28.644Z,84.60
2022-12-11T05:41:55.176Z,84.60
2022-12-11T05:44:21.772Z,84.60
2022-12-11T05:46:49.351Z,84.60
2022-12-11T05:49:19.717Z,84.60
2022-12-11T05:51:46.666Z,84.60
2022-12-11T05:54:13.329Z,84.50
2022-12-11T05:56:39.881Z,84.40
2022-12-11T05:59:06.749Z,84.40
2022-12-11T06:01:40.172Z,84.40
2022-12-11T06:04:08.406Z,82.90
2022-12-11T06:06:35.567Z,69.30
2022-12-11T06:09:02.723Z,72.10
2022-12-11T06:11:31.287Z,83.40
2022-12-11T06:13:58.097Z,84.60
2022-12-11T06:16:25.186Z,84.90
2022-12-11T06:18:55.851Z,83.70
2022-12-11T06:21:28.206Z,82.80
2022-12-11T06:23:57.040Z,82.10
2022-12-11T06:26:24.274Z,81.90
2022-12-11T06:28:51.400Z,81.80
2022-12-11T06:31:18.952Z,81.90
2022-12-11T06:33:46.248Z,81.90
2022-12-11T06:36:18.446Z,82.00
2022-12-11T06:38:45.553Z,82.10
2022-12-11T06:41:12.662Z,82.30
2022-12-11T06:43:40.655Z,82.40
2022-12-11T06:46:10.519Z,82.60
2022-12-11T06:48:38.336Z,82.80
2022-12-11T06:51:06.925Z,82.90
2022-12-11T06:53:33.665Z,83.00
2022-12-11T06:56:11.735Z,82.60
2022-12-11T06:58:38.735Z,83.10
2022-12-11T07:03:33.401Z,82.70
2022-12-11T07:06:02.205Z,82.70
2022-12-11T07:11:03.338Z,82.70
2022-12-11T07:13:30.065Z,82.80
2022-12-11T07:15:59.083Z,82.80
2022-12-11T07:18:25.955Z,82.80
2022-12-11T07:20:52.664Z,82.80
2022-12-11T07:23:19.251Z,82.80
2022-12-11T07:25:46.252Z,82.70
2022-12-11T07:28:16.591Z,82.80
2022-12-11T07:30:43.431Z,82.80
2022-12-11T07:33:09.975Z,83.00
2022-12-11T07:35:37.278Z,83.10
2022-12-11T07:38:03.977Z,83.20
2022-12-11T07:42:58.067Z,84.00
2022-12-11T07:45:26.248Z,84.50
2022-12-11T07:47:53.061Z,84.00
2022-12-11T07:50:19.721Z,83.90
2022-12-11T07:52:46.289Z,84.00
2022-12-11T07:55:13.187Z,84.00
2022-12-11T08:00:07.741Z,85.30
2022-12-11T08:02:37.398Z,85.70
2022-12-11T08:05:05.105Z,86.40
2022-12-11T08:07:35.313Z,86.50
2022-12-11T08:10:02.621Z,87.20
2022-12-11T08:12:29.173Z,86.50
2022-12-11T08:14:55.733Z,87.00
2022-12-11T08:17:27.419Z,87.40
2022-12-11T08:19:56.053Z,87.00
2022-12-11T08:24:49.630Z,86.70
2022-12-11T08:27:16.159Z,86.50
2022-12-11T08:29:42.735Z,86.60
2022-12-11T08:32:12.436Z,86.70
2022-12-11T08:34:39.839Z,87.80
2022-12-11T08:37:06.371Z,87.80
2022-12-11T08:39:32.933Z,87.90
2022-12-11T08:41:59.455Z,87.80
2022-12-11T08:46:53.672Z,87.50
2022-12-11T08:49:20.248Z,87.20
2022-12-11T08:51:46.850Z,87.20
2022-12-11T08:54:13.456Z,87.40
2022-12-11T08:56:40.866Z,87.30
2022-12-11T08:59:07.477Z,87.00
2022-12-11T09:01:34.133Z,86.90
2022-12-11T09:04:00.827Z,86.70
2022-12-11T09:06:29.492Z,86.70
2022-12-11T09:08:58.660Z,87.10
2022-12-11T09:11:28.801Z,87.20
2022-12-11T09:13:55.736Z,86.40
2022-12-11T09:16:24.712Z,86.10
2022-12-11T09:18:54.072Z,85.90
2022-12-11T09:21:23.552Z,85.80
2022-12-11T09:23:53.498Z,84.50
2022-12-11T09:26:20.171Z,85.90
2022-12-11T09:28:47.417Z,86.00
2022-12-11T09:31:17.087Z,85.80
2022-12-11T09:33:44.461Z,85.50
2022-12-11T09:36:11.976Z,85.10
2022-12-11T09:38:39.204Z,85.20
2022-12-11T09:41:20.449Z,85.10
2022-12-11T09:44:32.586Z,85.60
2022-12-11T09:49:39.384Z,77.10
2022-12-11T09:52:08.840Z,86.10
2022-12-11T09:54:36.799Z,87.10
2022-12-11T09:57:19.522Z,86.60
2022-12-11T10:00:13.883Z,86.00
2022-12-11T10:03:07.133Z,85.40
2022-12-11T10:05:51.072Z,85.30
2022-12-11T10:08:38.574Z,85.60
2022-12-11T10:11:39.906Z,81.00
2022-12-11T10:14:44.092Z,86.80
2022-12-11T10:17:29.217Z,86.00
2022-12-11T10:20:00.554Z,80.00
2022-12-11T10:22:32.176Z,70.70
2022-12-11T10:25:11.837Z,75.80
2022-12-11T10:30:21.085Z,85.30
2022-12-11T10:33:06.680Z,83.30
2022-12-11T10:35:47.684Z,82.00
2022-12-11T10:38:33.857Z,81.20
2022-12-11T10:41:18.730Z,80.60
2022-12-11T10:43:48.078Z,80.40
2022-12-11T10:46:28.100Z,78.20
2022-12-11T10:48:58.719Z,80.80
2022-12-11T10:51:31.161Z,79.60
2022-12-11T10:54:08.800Z,80.70
2022-12-11T10:56:37.695Z,81.00
2022-12-11T11:01:32.910Z,81.30
2022-12-11T11:04:04.678Z,81.60
2022-12-11T11:06:31.253Z,81.80
2022-12-11T11:08:59.887Z,81.90
2022-12-11T11:11:33.929Z,82.00
2022-12-11T11:14:17.350Z,82.10
2022-12-11T11:16:47.047Z,82.20
2022-12-11T11:19:35.721Z,82.20
2022-12-11T11:22:07.410Z,78.70
2022-12-11T11:24:41.377Z,74.80
2022-12-11T11:27:31.591Z,82.70
2022-12-11T11:30:06.334Z,82.90
2022-12-11T11:32:38.427Z,81.60
2022-12-11T11:35:13.803Z,82.20
2022-12-11T11:37:44.859Z,81.80
2022-12-11T11:40:16.194Z,81.50
2022-12-11T11:43:03.823Z,81.40
2022-12-11T11:45:51.739Z,81.50
2022-12-11T11:48:21.201Z,81.70
2022-12-11T11:50:50.493Z,81.80
2022-12-11T11:53:30.400Z,82.00
2022-12-11T11:56:25.550Z,82.20
2022-12-11T11:59:14.210Z,82.30
2022-12-11T12:01:43.841Z,82.40
2022-12-11T12:04:11.671Z,82.60
2022-12-11T12:07:23.917Z,82.70
2022-12-11T12:09:56.331Z,83.00
2022-12-11T12:12:57.389Z,82.80
2022-12-11T12:15:39.180Z,83.10
2022-12-11T12:18:26.774Z,83.10
2022-12-11T12:21:02.407Z,83.20
2022-12-11T12:23:55.684Z,83.10
2022-12-11T12:26:33.613Z,83.10
2022-12-11T12:29:37.721Z,83.50
2022-12-11T12:32:13.063Z,83.80
2022-12-11T12:35:03.251Z,83.50
2022-12-11T12:37:57.708Z,83.30
2022-12-11T12:40:35.759Z,83.10
2022-12-11T12:43:24.432Z,83.20
2022-12-11T12:46:10.222Z,83.30
2022-12-11T12:48:36.922Z,83.50
2022-12-11T12:51:04.344Z,83.50
2022-12-11T12:53:35.965Z,84.10
2022-12-11T12:56:05.040Z,83.60
2022-12-11T12:58:43.349Z,83.70
2022-12-11T13:01:18.019Z,84.00
2022-12-11T13:04:05.940Z,84.00
2022-12-11T13:06:43.603Z,83.60
2022-12-11T13:09:16.142Z,83.60
2022-12-11T13:11:43.718Z,84.20
2022-12-11T13:14:16.281Z,84.10
2022-12-11T13:16:44.936Z,83.70
2022-12-11T13:19:23.605Z,83.80
2022-12-11T13:22:14.772Z,84.30
2022-12-11T13:24:51.683Z,84.00
2022-12-11T13:27:35.673Z,84.00
2022-12-11T13:30:17.187Z,84.10
2022-12-11T13:33:04.074Z,84.10
2022-12-11T13:35:32.627Z,84.10
2022-12-11T13:38:17.277Z,84.10
2022-12-11T13:40:46.575Z,84.60
2022-12-11T13:43:32.815Z,84.20
2022-12-11T13:46:02.592Z,84.20
2022-12-11T13:48:35.528Z,84.20
2022-12-11T13:51:03.164Z,84.20
2022-12-11T13:53:29.824Z,84.30
2022-12-11T13:56:03.799Z,84.30
2022-12-11T13:58:37.752Z,84.30
2022-12-11T14:01:10.772Z,84.40
2022-12-11T14:03:40.656Z,84.50
2022-12-11T14:06:18.080Z,84.50
2022-12-11T14:08:47.886Z,84.50
2022-12-11T14:11:23.367Z,84.60
2022-12-11T14:13:50.343Z,84.50
2022-12-11T14:16:23.131Z,84.60
2022-12-11T14:18:51.524Z,84.60
2022-12-11T14:21:24.298Z,84.60
2022-12-11T14:23:56.173Z,84.60
2022-12-11T14:26:34.354Z,85.10
2022-12-11T14:29:00.942Z,84.50
2022-12-11T14:31:38.302Z,84.50
2022-12-11T14:34:12.282Z,84.60
2022-12-11T14:36:41.351Z,84.60
2022-12-11T14:39:14.006Z,85.10
2022-12-11T14:42:00.128Z,84.80
2022-12-11T14:44:31.220Z,84.80
2022-12-11T14:47:03.027Z,84.80
2022-12-11T14:50:07.602Z,84.90
2022-12-11T14:52:40.512Z,84.90
2022-12-11T14:55:22.432Z,85.10
2022-12-11T14:57:51.709Z,85.00
2022-12-11T15:00:30.793Z,85.10
2022-12-11T15:03:00.763Z,85.30
2022-12-11T15:05:27.735Z,85.80
2022-12-11T15:08:26.080Z,85.80
2022-12-11T15:11:13.880Z,84.90
2022-12-11T15:13:57.061Z,85.50
2022-12-11T15:16:25.644Z,84.60
2022-12-11T15:18:54.261Z,84.50
2022-12-11T15:21:33.759Z,85.10
2022-12-11T15:24:03.763Z,84.60
2022-12-11T15:26:39.037Z,84.60
2022-12-11T15:29:27.602Z,84.50
2022-12-11T15:32:03.894Z,84.50
2022-12-11T15:34:45.307Z,84.60
2022-12-11T15:37:20.751Z,85.20
2022-12-11T15:39:47.428Z,84.90
2022-12-11T15:42:18.423Z,84.90
2022-12-11T15:44:44.979Z,85.00
2022-12-11T15:47:18.379Z,85.50
2022-12-11T15:49:45.178Z,68.20
2022-12-11T15:52:11.727Z,80.30
2022-12-11T15:54:38.283Z,86.50
2022-12-11T15:57:07.626Z,86.10
2022-12-11T15:59:34.584Z,84.60
2022-12-11T16:02:01.097Z,83.90
2022-12-11T16:04:27.607Z,83.20
2022-12-11T16:06:55.107Z,83.00
2022-12-11T16:09:21.632Z,83.00
2022-12-11T16:14:15.196Z,83.00
2022-12-11T16:16:41.731Z,83.50
2022-12-11T16:19:08.392Z,83.20
2022-12-11T16:21:34.913Z,83.30
2022-12-11T16:24:01.488Z,83.40
2022-12-11T16:26:28.036Z,83.60
2022-12-11T16:28:54.563Z,83.60
2022-12-11T16:31:21.165Z,80.90
2022-12-11T16:33:47.720Z,84.20
2022-12-11T16:36:19.221Z,84.20
2022-12-11T16:38:53.512Z,84.70
2022-12-11T16:41:22.689Z,84.00
2022-12-11T16:46:22.102Z,84.00
2022-12-11T16:48:48.905Z,84.00
2022-12-11T16:51:16.351Z,83.90
2022-12-11T16:53:42.918Z,84.50
2022-12-11T16:56:09.866Z,84.00
2022-12-11T17:01:11.978Z,84.10
2022-12-11T17:03:39.337Z,84.10
2022-12-11T17:06:10.885Z,84.20
2022-12-11T17:08:37.571Z,84.20
2022-12-11T17:11:09.809Z,84.30
2022-12-11T17:13:36.972Z,84.90
2022-12-11T17:16:08.795Z,84.90
2022-12-11T17:18:36.166Z,84.90
2022-12-11T17:21:08.175Z,84.50
2022-12-11T17:23:35.286Z,84.50
2022-12-11T17:26:02.633Z,84.60
2022-12-11T17:28:30.011Z,85.20
2022-12-11T17:30:57.035Z,84.60
2022-12-11T17:33:24.072Z,84.70
2022-12-11T17:35:50.996Z,85.30
2022-12-11T17:40:45.028Z,84.80
2022-12-11T17:43:12.489Z,84.80
2022-12-11T17:45:43.045Z,84.80
2022-12-11T17:48:09.962Z,84.90
2022-12-11T17:50:43.991Z,84.80
2022-12-11T17:53:12.823Z,84.60
2022-12-11T17:55:43.691Z,84.60
2022-12-11T17:58:15.048Z,84.60
2022-12-11T18:00:43.800Z,84.50
2022-12-11T18:03:10.984Z,84.50
2022-12-11T18:05:48.796Z,84.50
2022-12-11T18:08:17.920Z,84.40
2022-12-11T18:10:44.654Z,84.40
2022-12-11T18:13:11.846Z,83.20
2022-12-11T18:15:39.596Z,85.30
2022-12-11T18:20:35.031Z,85.10
2022-12-11T18:23:01.770Z,85.00
2022-12-11T18:25:28.496Z,84.70
2022-12-11T18:27:55.797Z,84.60
2022-12-11T18:30:23.625Z,84.60
2022-12-11T18:32:50.673Z,85.10
2022-12-11T18:35:17.821Z,84.70
2022-12-11T18:40:12.295Z,84.50
2022-12-11T18:47:34.171Z,84.10
2022-12-11T18:50:05.785Z,85.40
2022-12-11T18:55:00.998Z,85.00
2022-12-11T18:57:27.560Z,85.00
2022-12-11T18:59:54.121Z,85.00
2022-12-11T19:02:21.852Z,85.50
2022-12-11T19:04:48.500Z,85.60
2022-12-11T19:07:15.085Z,85.60
2022-12-11T19:09:47.530Z,85.70
2022-12-11T19:12:14.810Z,85.60
2022-12-11T19:14:41.441Z,87.00
2022-12-11T19:17:08.038Z,85.50
2022-12-11T19:19:35.728Z,85.60
2022-12-11T19:22:02.380Z,85.70
2022-12-11T19:24:28.967Z,85.70
2022-12-11T19:26:55.608Z,85.60
2022-12-11T19:29:27.986Z,85.60
2022-12-11T19:31:56.157Z,85.70
2022-12-11T19:34:23.855Z,85.60
2022-12-11T19:36:51.677Z,85.70
2022-12-11T19:39:19.552Z,85.60
2022-12-11T19:41:46.295Z,85.70
2022-12-11T19:44:12.832Z,85.70
2022-12-11T19:46:39.710Z,85.70
2022-12-11T19:49:06.639Z,85.80
2022-12-11T19:51:39.082Z,85.50
2022-12-11T19:54:07.616Z,85.50
2022-12-11T19:56:35.228Z,85.60
2022-12-11T19:59:05.650Z,85.70
2022-12-11T20:01:35.110Z,85.70
2022-12-11T20:04:06.011Z,85.70
2022-12-11T20:06:34.926Z,85.80
2022-12-11T20:09:03.548Z,85.70
2022-12-11T20:11:32.411Z,85.70
2022-12-11T20:13:59.917Z,85.70
2022-12-11T20:16:46.318Z,85.60
2022-12-11T20:19:13.634Z,85.70
2022-12-11T20:21:40.825Z,85.60
2022-12-11T20:24:08.272Z,85.60
2022-12-11T20:26:36.942Z,85.50
2022-12-11T20:29:07.381Z,85.60
2022-12-11T20:31:34.963Z,85.50
2022-12-11T20:34:01.691Z,85.50
2022-12-11T20:36:28.443Z,85.40
2022-12-11T20:38:55.781Z,85.50
2022-12-11T20:41:24.801Z,85.60
2022-12-11T20:43:55.414Z,85.80
2022-12-11T20:46:24.943Z,85.80
2022-12-11T20:48:52.846Z,85.80
2022-12-11T20:51:25.831Z,85.90
2022-12-11T20:54:01.072Z,85.90
2022-12-11T20:56:29.484Z,85.90
2022-12-11T20:58:57.129Z,85.80
2022-12-11T21:01:25.765Z,85.90
2022-12-11T21:03:53.430Z,85.90
2022-12-11T21:06:23.553Z,86.10
2022-12-11T21:08:50.111Z,86.10
2022-12-11T21:11:16.938Z,86.10
2022-12-11T21:13:43.911Z,86.20
2022-12-11T21:16:11.167Z,86.20
2022-12-11T21:18:38.508Z,86.30
2022-12-11T21:21:06.172Z,86.10
2022-12-11T21:23:35.733Z,86.10
2022-12-11T21:26:03.160Z,86.10
2022-12-11T21:28:35.243Z,86.20
2022-12-11T21:31:04.756Z,86.30
2022-12-11T21:33:31.573Z,86.30
2022-12-11T21:35:59.529Z,86.20
2022-12-11T21:38:26.940Z,86.20
2022-12-11T21:40:54.509Z,86.20
2022-12-11T21:43:21.669Z,86.20
2022-12-11T21:46:04.188Z,86.30
2022-12-11T21:48:31.209Z,86.30
2022-12-11T21:51:08.404Z,86.30
2022-12-11T21:53:35.377Z,86.30
2022-12-11T21:56:06.070Z,86.40
2022-12-11T21:58:32.853Z,86.20
2022-12-11T22:00:59.464Z,86.30
2022-12-11T22:03:26.470Z,86.30
2022-12-11T22:05:53.029Z,86.40
2022-12-11T22:08:19.918Z,86.40
2022-12-11T22:10:46.663Z,86.50
2022-12-11T22:13:13.226Z,86.40
2022-12-11T22:15:39.892Z,86.40
2022-12-11T22:18:06.498Z,86.40
2022-12-11T22:20:33.091Z,86.40
2022-12-11T22:22:59.884Z,86.40
2022-12-11T22:25:26.458Z,86.30
2022-12-11T22:27:53.017Z,86.30
2022-12-11T22:30:19.646Z,86.30
2022-12-11T22:32:46.184Z,86.30
2022-12-11T22:35:13.001Z,86.30
2022-12-11T22:37:39.877Z,86.40
2022-12-11T22:40:06.793Z,86.30
2022-12-11T22:42:33.592Z,86.30
2022-12-11T22:45:00.289Z,86.30
2022-12-11T22:47:26.879Z,86.30
2022-12-11T22:49:53.495Z,86.40
2022-12-11T22:52:20.081Z,86.40
2022-12-11T22:54:46.662Z,86.30
2022-12-11T22:57:14.184Z,86.50
2022-12-11T22:59:41.173Z,86.30
2022-12-11T23:02:07.891Z,86.30
2022-12-11T23:04:34.667Z,86.30
2022-12-11T23:07:01.210Z,86.30
2022-12-11T23:09:27.856Z,86.40
2022-12-11T23:11:55.584Z,86.40
2022-12-11T23:14:22.236Z,86.40
2022-12-11T23:16:48.823Z,86.40
2022-12-11T23:19:19.585Z,86.40
2022-12-11T23:21:48.877Z,86.40
2022-12-11T23:24:15.853Z,86.40
2022-12-11T23:26:42.611Z,86.40
2022-12-11T23:29:09.306Z,86.30
2022-12-11T23:31:36.135Z,86.30
2022-12-11T23:34:02.768Z,86.30
2022-12-11T23:36:29.855Z,86.30
2022-12-11T23:38:56.784Z,86.20
2022-12-11T23:41:23.623Z,86.20
2022-12-11T23:43:50.169Z,86.20
2022-12-11T23:46:19.257Z,86.20
2022-12-11T23:48:45.978Z,86.20
2022-12-11T23:51:15.585Z,86.20
2022-12-11T23:53:42.765Z,86.20
2022-12-11T23:56:16.027Z,86.10
2022-12-11T23:58:42.985Z,86.10
